createdAt,value
2018-06-27T00:00:26.227Z,1014.77
2018-06-27T00:01:06.673Z,1014.77
2018-06-27T00:01:47.060Z,1014.77
2018-06-27T00:02:27.505Z,1014.76
2018-06-27T00:03:07.919Z,1014.74
2018-06-27T00:03:48.345Z,1014.73
2018-06-27T00:04:28.759Z,1014.72
2018-06-27T00:05:09.174Z,1014.76
2018-06-27T00:05:49.605Z,1014.77
2018-06-27T00:06:30.004Z,1014.74
2018-06-27T00:07:10.477Z,1014.68
2018-06-27T00:07:50.960Z,1014.75
2018-06-27T00:08:31.358Z,1014.74
2018-06-27T00:09:11.652Z,1014.71
2018-06-27T00:09:52.168Z,1014.71
2018-06-27T00:10:32.549Z,1014.71
2018-06-27T00:11:12.992Z,1014.73
2018-06-27T00:11:53.383Z,1014.68
2018-06-27T00:12:33.826Z,1014.72
2018-06-27T00:13:14.274Z,1014.73
2018-06-27T00:13:54.598Z,1014.74
2018-06-27T00:14:34.947Z,1014.72
2018-06-27T00:15:15.508Z,1014.72
2018-06-27T00:15:55.835Z,1014.76
2018-06-27T00:16:36.382Z,1014.72
2018-06-27T00:17:16.708Z,1014.75
2018-06-27T00:17:57.095Z,1014.73
2018-06-27T00:18:37.493Z,1014.75
2018-06-27T00:19:17.899Z,1014.76
2018-06-27T00:19:58.229Z,1014.73
2018-06-27T00:20:38.695Z,1014.74
2018-06-27T00:21:19.121Z,1014.76
2018-06-27T00:21:59.626Z,1014.73
2018-06-27T00:22:40.028Z,1014.74
2018-06-27T00:23:20.454Z,1014.74
2018-06-27T00:24:00.721Z,1014.77
2018-06-27T00:24:41.243Z,1014.76
2018-06-27T00:25:21.610Z,1014.75
2018-06-27T00:26:02.016Z,1014.74
2018-06-27T00:26:42.499Z,1014.73
2018-06-27T00:27:22.770Z,1014.76
2018-06-27T00:28:03.142Z,1014.76
2018-06-27T00:28:43.595Z,1014.76
2018-06-27T00:29:24.045Z,1014.75
2018-06-27T00:30:04.503Z,1014.75
2018-06-27T00:30:46.269Z,1014.76
2018-06-27T00:31:26.879Z,1014.77
2018-06-27T00:32:10.456Z,1014.75
2018-06-27T00:32:51.877Z,1014.76
2018-06-27T00:33:32.286Z,1014.79
2018-06-27T00:34:15.165Z,1014.79
2018-06-27T00:34:55.130Z,1014.77
2018-06-27T00:35:35.648Z,1014.78
2018-06-27T00:36:18.039Z,1014.79
2018-06-27T00:37:00.061Z,1014.8
2018-06-27T00:37:40.659Z,1014.79
2018-06-27T00:38:21.235Z,1014.74
2018-06-27T00:39:03.778Z,1014.78
2018-06-27T00:39:43.798Z,1014.8
2018-06-27T00:42:12.020Z,1014.78
2018-06-27T00:44:40.285Z,1014.79
2018-06-27T00:46:53.180Z,1014.79
2018-06-27T00:49:07.060Z,1014.78
2018-06-27T00:51:36.215Z,1014.74
2018-06-27T00:52:16.594Z,1014.77
2018-06-27T00:58:05.815Z,1014.73
2018-06-27T01:03:55.771Z,1014.76
2018-06-27T01:06:09.740Z,1014.75
2018-06-27T01:06:50.138Z,1014.77
2018-06-27T01:09:03.181Z,1014.73
2018-06-27T01:11:16.190Z,1014.79
2018-06-27T01:13:30.105Z,1014.81
2018-06-27T01:17:30.730Z,1014.73
2018-06-27T01:19:43.712Z,1014.71
2018-06-27T01:20:24.065Z,1014.71
2018-06-27T01:24:25.896Z,1014.69
2018-06-27T01:30:30.505Z,1014.68
2018-06-27T01:39:55.809Z,1014.71
2018-06-27T01:42:08.815Z,1014.72
2018-06-27T01:47:58.149Z,1014.72
2018-06-27T01:51:58.901Z,1014.77
2018-06-27T01:52:39.229Z,1014.78
2018-06-27T01:56:39.909Z,1014.83
2018-06-27T02:02:29.693Z,1014.89
2018-06-27T02:06:30.426Z,1014.84
2018-06-27T02:08:43.733Z,1014.87
2018-06-27T02:10:56.637Z,1014.88
2018-06-27T02:13:09.761Z,1014.9
2018-06-27T02:15:23.734Z,1014.91
2018-06-27T02:17:37.735Z,1014.93
2018-06-27T02:19:50.706Z,1014.93
2018-06-27T02:22:03.780Z,1014.92
2018-06-27T02:24:17.891Z,1014.96
2018-06-27T02:30:08.141Z,1014.92
2018-06-27T02:32:21.107Z,1014.89
2018-06-27T02:33:01.510Z,1014.86
2018-06-27T02:37:03.569Z,1014.91
2018-06-27T02:39:16.719Z,1014.9
2018-06-27T02:39:57.081Z,1014.95
2018-06-27T02:42:10.096Z,1014.93
2018-06-27T02:46:11.777Z,1014.94
2018-06-27T02:48:25.662Z,1014.94
2018-06-27T02:49:05.998Z,1014.95
2018-06-27T02:49:46.468Z,1014.95
2018-06-27T02:50:26.818Z,1014.93
2018-06-27T02:52:54.938Z,1014.92
2018-06-27T02:55:08.893Z,1014.91
2018-06-27T02:59:10.868Z,1014.87
2018-06-27T02:59:51.164Z,1014.89
2018-06-27T03:02:04.128Z,1014.89
2018-06-27T03:02:44.500Z,1014.9
2018-06-27T03:04:58.761Z,1014.85
2018-06-27T03:07:26.845Z,1014.84
2018-06-27T03:09:39.754Z,1014.83
2018-06-27T03:10:20.153Z,1014.83
2018-06-27T03:11:00.562Z,1014.83
2018-06-27T03:11:40.912Z,1014.84
2018-06-27T03:17:30.726Z,1014.89
2018-06-27T03:19:44.811Z,1014.86
2018-06-27T03:20:25.076Z,1014.87
2018-06-27T03:26:15.506Z,1014.96
2018-06-27T03:28:29.374Z,1014.96
2018-06-27T03:30:42.740Z,1014.97
2018-06-27T03:34:58.728Z,1015.01
2018-06-27T03:35:39.098Z,1015.02
2018-06-27T03:36:19.472Z,1015
2018-06-27T03:40:20.707Z,1015.09
2018-06-27T03:42:48.823Z,1015.07
2018-06-27T03:45:01.865Z,1015.12
2018-06-27T03:45:42.254Z,1015.1
2018-06-27T03:49:42.843Z,1015.15
2018-06-27T03:50:23.246Z,1015.17
2018-06-27T03:52:36.268Z,1015.19
2018-06-27T03:54:49.077Z,1015.24
2018-06-27T03:55:29.528Z,1015.21
2018-06-27T03:56:09.902Z,1015.25
2018-06-27T03:58:39.579Z,1015.22
2018-06-27T03:59:20.006Z,1015.23
2018-06-27T04:00:00.363Z,1015.26
2018-06-27T04:00:40.818Z,1015.23
2018-06-27T04:01:21.305Z,1015.26
2018-06-27T04:02:01.658Z,1015.24
2018-06-27T04:02:42.067Z,1015.28
2018-06-27T04:03:22.456Z,1015.25
2018-06-27T04:04:02.899Z,1015.28
2018-06-27T04:41:57.622Z,1015.47
2018-06-27T04:47:47.000Z,1015.48
2018-06-27T04:48:27.425Z,1015.5
2018-06-27T04:49:07.775Z,1015.46
2018-06-27T04:49:48.166Z,1015.47
2018-06-27T04:50:28.571Z,1015.46
2018-06-27T04:51:08.943Z,1015.5
2018-06-27T04:51:49.329Z,1015.45
2018-06-27T04:52:29.739Z,1015.47
2018-06-27T04:53:10.115Z,1015.49
2018-06-27T04:53:50.531Z,1015.48
2018-06-27T04:54:30.991Z,1015.49
2018-06-27T04:56:59.327Z,1015.51
2018-06-27T04:59:15.084Z,1015.51
2018-06-27T04:59:55.513Z,1015.57
2018-06-27T05:02:08.570Z,1015.55
2018-06-27T05:02:48.873Z,1015.58
2018-06-27T05:03:29.349Z,1015.58
2018-06-27T05:04:09.744Z,1015.58
2018-06-27T05:04:50.132Z,1015.6
2018-06-27T05:05:30.550Z,1015.6
2018-06-27T05:06:10.956Z,1015.6
2018-06-27T05:08:25.061Z,1015.57
2018-06-27T05:09:05.586Z,1015.59
2018-06-27T05:09:46.003Z,1015.6
2018-06-27T05:12:15.168Z,1015.62
2018-06-27T05:12:55.503Z,1015.63
2018-06-27T05:13:35.923Z,1015.6
2018-06-27T05:15:50.006Z,1015.59
2018-06-27T05:16:30.388Z,1015.66
2018-06-27T05:18:58.716Z,1015.61
2018-06-27T05:19:39.175Z,1015.64
2018-06-27T05:20:19.521Z,1015.62
2018-06-27T05:20:59.931Z,1015.64
2018-06-27T05:21:40.357Z,1015.64
2018-06-27T05:22:20.732Z,1015.64
2018-06-27T05:23:01.180Z,1015.61
2018-06-27T05:23:41.595Z,1015.63
2018-06-27T05:24:22.025Z,1015.65
2018-06-27T05:25:02.417Z,1015.63
2018-06-27T05:27:30.899Z,1015.64
2018-06-27T05:28:11.212Z,1015.64
2018-06-27T05:28:51.656Z,1015.65
2018-06-27T05:29:32.053Z,1015.65
2018-06-27T05:30:12.400Z,1015.67
2018-06-27T05:30:52.834Z,1015.7
2018-06-27T05:31:33.295Z,1015.69
2018-06-27T05:33:46.746Z,1015.7
2018-06-27T05:34:27.132Z,1015.7
2018-06-27T05:35:07.604Z,1015.7
2018-06-27T05:35:48.074Z,1015.7
2018-06-27T05:36:28.463Z,1015.64
2018-06-27T05:37:08.919Z,1015.65
2018-06-27T05:37:50.314Z,1015.66
2018-06-27T05:38:30.725Z,1015.69
2018-06-27T05:40:44.888Z,1015.67
2018-06-27T05:41:25.403Z,1015.7
2018-06-27T05:42:06.888Z,1015.69
2018-06-27T05:42:53.567Z,1015.76
2018-06-27T05:43:43.056Z,1015.72
2018-06-27T05:45:31.207Z,1015.76
2018-06-27T05:46:22.771Z,1015.77
2018-06-27T05:47:15.746Z,1015.75
2018-06-27T05:48:09.535Z,1015.75
2018-06-27T05:48:59.037Z,1015.76
2018-06-27T05:51:21.072Z,1015.83
2018-06-27T05:52:15.367Z,1015.85
2018-06-27T05:53:16.258Z,1015.84
2018-06-27T05:54:06.440Z,1015.86
2018-06-27T05:55:01.800Z,1015.82
2018-06-27T05:55:59.102Z,1015.83
2018-06-27T05:56:48.771Z,1015.85
2018-06-27T06:00:21.868Z,1015.84
2018-06-27T06:01:15.060Z,1015.84
2018-06-27T06:03:04.727Z,1015.87
2018-06-27T06:03:45.255Z,1015.87
2018-06-27T06:04:25.995Z,1015.86
2018-06-27T06:05:08.524Z,1015.87
2018-06-27T06:05:48.995Z,1015.86
2018-06-27T06:06:29.730Z,1015.87
2018-06-27T06:07:10.205Z,1015.85
2018-06-27T06:07:50.615Z,1015.88
2018-06-27T06:08:31.394Z,1015.87
2018-06-27T06:09:12.073Z,1015.87
2018-06-27T06:09:52.559Z,1015.88
2018-06-27T06:10:33.644Z,1015.91
2018-06-27T06:11:15.470Z,1015.89
2018-06-27T06:11:55.503Z,1015.86
2018-06-27T06:12:36.971Z,1015.86
2018-06-27T06:13:16.783Z,1015.89
2018-06-27T06:13:57.256Z,1015.82
2018-06-27T06:14:38.697Z,1015.82
2018-06-27T06:15:19.115Z,1015.85
2018-06-27T06:15:59.601Z,1015.78
2018-06-27T06:16:40.142Z,1015.76
2018-06-27T06:17:20.848Z,1015.76
2018-06-27T06:18:01.425Z,1015.78
2018-06-27T06:18:42.035Z,1015.76
2018-06-27T06:19:23.948Z,1015.76
2018-06-27T06:20:03.843Z,1015.79
2018-06-27T06:20:44.272Z,1015.82
2018-06-27T06:21:24.758Z,1015.78
2018-06-27T06:22:05.190Z,1015.77
2018-06-27T06:22:45.817Z,1015.8
2018-06-27T06:23:26.324Z,1015.81
2018-06-27T06:24:06.794Z,1015.79
2018-06-27T06:24:47.191Z,1015.77
2018-06-27T06:25:27.713Z,1015.79
2018-06-27T06:26:08.076Z,1015.77
2018-06-27T06:26:49.344Z,1015.78
2018-06-27T06:27:29.717Z,1015.8
2018-06-27T06:28:10.397Z,1015.79
2018-06-27T06:28:50.816Z,1015.81
2018-06-27T06:29:31.359Z,1015.81
2018-06-27T06:30:12.462Z,1015.8
2018-06-27T06:30:52.469Z,1015.77
2018-06-27T06:31:32.968Z,1015.77
2018-06-27T06:32:13.582Z,1015.8
2018-06-27T06:32:53.839Z,1015.76
2018-06-27T06:33:34.303Z,1015.73
2018-06-27T06:34:14.716Z,1015.73
2018-06-27T06:34:55.127Z,1015.72
2018-06-27T06:35:35.527Z,1015.73
2018-06-27T06:36:30.674Z,1015.7
2018-06-27T06:37:25.837Z,1015.69
2018-06-27T06:38:06.454Z,1015.69
2018-06-27T06:38:47.202Z,1015.7
2018-06-27T06:39:27.956Z,1015.69
2018-06-27T06:43:07.324Z,1015.76
2018-06-27T06:43:47.368Z,1015.74
2018-06-27T06:44:27.950Z,1015.75
2018-06-27T06:45:08.358Z,1015.77
2018-06-27T06:45:49.099Z,1015.75
2018-06-27T06:46:32.596Z,1015.74
2018-06-27T06:47:19.960Z,1015.72
2018-06-27T06:48:00.769Z,1015.73
2018-06-27T06:48:41.031Z,1015.68
2018-06-27T06:49:21.606Z,1015.69
2018-06-27T06:50:02.429Z,1015.72
2018-06-27T06:50:42.674Z,1015.73
2018-06-27T06:51:23.169Z,1015.73
2018-06-27T06:52:04.484Z,1015.78
2018-06-27T06:52:45.268Z,1015.77
2018-06-27T06:53:26.274Z,1015.76
2018-06-27T06:54:06.943Z,1015.78
2018-06-27T06:54:47.359Z,1015.83
2018-06-27T06:55:27.958Z,1015.82
2018-06-27T06:56:08.481Z,1015.81
2018-06-27T06:56:48.791Z,1015.84
2018-06-27T06:59:16.554Z,1015.8
2018-06-27T06:59:57.583Z,1015.81
2018-06-27T07:00:38.224Z,1015.8
2018-06-27T07:01:18.830Z,1015.83
2018-06-27T07:01:59.366Z,1015.83
2018-06-27T07:02:39.809Z,1015.79
2018-06-27T07:03:20.085Z,1015.83
2018-06-27T07:04:01.441Z,1015.82
2018-06-27T07:04:41.797Z,1015.84
2018-06-27T07:05:22.157Z,1015.82
2018-06-27T07:06:02.667Z,1015.8
2018-06-27T07:06:43.402Z,1015.83
2018-06-27T07:07:23.828Z,1015.83
2018-06-27T07:08:06.245Z,1015.7
2018-06-27T07:08:45.824Z,1015.82
2018-06-27T07:09:26.254Z,1015.79
2018-06-27T07:10:06.765Z,1015.82
2018-06-27T07:10:47.884Z,1015.8
2018-06-27T07:11:28.407Z,1015.83
2018-06-27T07:12:08.816Z,1015.84
2018-06-27T07:12:49.319Z,1015.82
2018-06-27T07:13:29.845Z,1015.81
2018-06-27T07:14:10.170Z,1015.86
2018-06-27T07:14:50.838Z,1015.83
2018-06-27T07:15:31.293Z,1015.85
2018-06-27T07:16:11.738Z,1015.84
2018-06-27T07:16:52.291Z,1015.84
2018-06-27T07:17:33.256Z,1015.83
2018-06-27T07:18:13.579Z,1015.81
2018-06-27T07:18:54.132Z,1015.82
2018-06-27T07:19:34.836Z,1015.77
2018-06-27T07:20:15.268Z,1015.78
2018-06-27T07:20:55.929Z,1015.77
2018-06-27T07:21:36.257Z,1015.75
2018-06-27T07:22:16.692Z,1015.77
2018-06-27T07:22:57.303Z,1015.76
2018-06-27T07:23:38.278Z,1015.77
2018-06-27T07:24:19.139Z,1015.77
2018-06-27T07:24:59.586Z,1015.75
2018-06-27T07:25:40.311Z,1015.72
2018-06-27T07:26:20.580Z,1015.72
2018-06-27T07:27:01.161Z,1015.73
2018-06-27T07:27:41.695Z,1015.69
2018-06-27T07:28:22.588Z,1015.68
2018-06-27T07:29:04.241Z,1015.72
2018-06-27T07:29:45.422Z,1015.71
2018-06-27T07:30:25.258Z,1015.73
2018-06-27T07:31:06.733Z,1015.73
2018-06-27T07:31:46.813Z,1015.74
2018-06-27T07:34:23.122Z,1015.68
2018-06-27T07:35:05.344Z,1015.74
2018-06-27T07:35:45.895Z,1015.73
2018-06-27T07:36:26.188Z,1015.71
2018-06-27T07:37:06.986Z,1015.71
2018-06-27T07:37:48.793Z,1015.72
2018-06-27T07:38:28.982Z,1015.75
2018-06-27T07:39:10.716Z,1015.76
2018-06-27T07:39:51.970Z,1015.73
2018-06-27T07:40:33.160Z,1015.72
2018-06-27T07:41:13.252Z,1015.72
2018-06-27T07:41:54.715Z,1015.72
2018-06-27T07:42:36.163Z,1015.7
2018-06-27T07:43:16.849Z,1015.71
2018-06-27T07:43:58.153Z,1015.74
2018-06-27T07:44:38.851Z,1015.74
2018-06-27T07:45:19.661Z,1015.77
2018-06-27T07:46:02.060Z,1015.76
2018-06-27T07:46:42.728Z,1015.73
2018-06-27T07:47:23.724Z,1015.71
2018-06-27T07:48:05.397Z,1015.72
2018-06-27T07:48:45.788Z,1015.69
2018-06-27T07:49:27.670Z,1015.75
2018-06-27T07:50:08.796Z,1015.73
2018-06-27T07:50:49.222Z,1015.74
2018-06-27T07:51:30.504Z,1015.72
2018-06-27T07:52:12.163Z,1015.76
2018-06-27T07:52:53.170Z,1015.69
2018-06-27T07:53:33.944Z,1015.74
2018-06-27T07:54:15.206Z,1015.68
2018-06-27T07:54:55.448Z,1015.72
2018-06-27T07:57:16.341Z,1015.69
2018-06-27T07:57:58.048Z,1015.71
2018-06-27T07:58:39.100Z,1015.66
2018-06-27T07:59:19.824Z,1015.67
2018-06-27T08:00:00.827Z,1015.65
2018-06-27T08:00:41.127Z,1015.64
2018-06-27T08:01:21.720Z,1015.67
2018-06-27T08:02:04.326Z,1015.64
2018-06-27T08:02:45.119Z,1015.63
2018-06-27T08:03:25.654Z,1015.63
2018-06-27T08:04:06.900Z,1015.62
2018-06-27T08:04:47.538Z,1015.64
2018-06-27T08:05:29.141Z,1015.63
2018-06-27T08:06:10.104Z,1015.6
2018-06-27T08:06:51.163Z,1015.61
2018-06-27T08:07:31.601Z,1015.59
2018-06-27T08:08:13.023Z,1015.62
2018-06-27T08:08:53.466Z,1015.62
2018-06-27T08:09:34.613Z,1015.59
2018-06-27T08:10:14.618Z,1015.62
2018-06-27T08:10:56.022Z,1015.61
2018-06-27T08:11:37.082Z,1015.63
2018-06-27T08:12:18.096Z,1015.63
2018-06-27T08:12:57.905Z,1015.63
2018-06-27T08:13:39.614Z,1015.59
2018-06-27T08:14:20.840Z,1015.59
2018-06-27T08:15:01.717Z,1015.57
2018-06-27T08:15:42.684Z,1015.58
2018-06-27T08:16:23.522Z,1015.6
2018-06-27T08:17:04.173Z,1015.59
2018-06-27T08:17:45.571Z,1015.6
2018-06-27T08:18:26.798Z,1015.58
2018-06-27T08:19:08.435Z,1015.6
2018-06-27T08:19:52.525Z,1015.61
2018-06-27T08:20:33.606Z,1015.6
2018-06-27T08:21:13.743Z,1015.6
2018-06-27T08:21:56.019Z,1015.6
2018-06-27T08:22:36.209Z,1015.61
2018-06-27T08:23:17.592Z,1015.64
2018-06-27T08:23:58.530Z,1015.6
2018-06-27T08:24:39.528Z,1015.59
2018-06-27T08:25:19.580Z,1015.61
2018-06-27T08:26:01.115Z,1015.6
2018-06-27T08:26:42.032Z,1015.59
2018-06-27T08:27:22.281Z,1015.62
2018-06-27T08:28:04.043Z,1015.6
2018-06-27T08:28:44.117Z,1015.64
2018-06-27T08:29:26.531Z,1015.59
2018-06-27T08:30:07.237Z,1015.61
2018-06-27T08:30:48.068Z,1015.59
2018-06-27T08:31:29.698Z,1015.64
2018-06-27T08:32:10.509Z,1015.58
2018-06-27T08:32:52.582Z,1015.61
2018-06-27T08:33:34.066Z,1015.58
2018-06-27T08:34:15.084Z,1015.55
2018-06-27T08:34:55.851Z,1015.58
2018-06-27T08:35:37.626Z,1015.59
2018-06-27T08:36:18.605Z,1015.55
2018-06-27T08:36:58.724Z,1015.55
2018-06-27T08:37:39.477Z,1015.47
2018-06-27T08:38:20.339Z,1015.5
2018-06-27T08:39:01.891Z,1015.49
2018-06-27T08:39:43.033Z,1015.5
2018-06-27T08:40:24.254Z,1015.5
2018-06-27T08:41:05.102Z,1015.49
2018-06-27T08:41:45.540Z,1015.48
2018-06-27T08:42:25.292Z,1015.5
2018-06-27T08:43:06.645Z,1015.49
2018-06-27T08:43:48.330Z,1015.46
2018-06-27T08:44:29.658Z,1015.46
2018-06-27T08:45:10.389Z,1015.45
2018-06-27T08:45:50.653Z,1015.42
2018-06-27T08:46:32.787Z,1015.44
2018-06-27T08:47:13.121Z,1015.4
2018-06-27T08:47:55.371Z,1015.39
2018-06-27T08:48:35.869Z,1015.41
2018-06-27T08:49:17.972Z,1015.43
2018-06-27T08:49:59.070Z,1015.43
2018-06-27T08:50:40.527Z,1015.42
2018-06-27T08:51:23.136Z,1015.4
2018-06-27T08:52:04.115Z,1015.42
2018-06-27T08:52:45.387Z,1015.39
2018-06-27T08:53:26.220Z,1015.4
2018-06-27T08:54:06.615Z,1015.38
2018-06-27T08:54:47.646Z,1015.35
2018-06-27T08:56:52.724Z,1015.33
2018-06-27T08:57:32.735Z,1015.33
2018-06-27T08:58:13.674Z,1015.32
2018-06-27T08:58:56.271Z,1015.31
2018-06-27T08:59:37.406Z,1015.31
2018-06-27T09:00:19.630Z,1015.28
2018-06-27T09:01:01.108Z,1015.3
2018-06-27T09:01:41.460Z,1015.26
2018-06-27T09:02:23.349Z,1015.29
2018-06-27T09:03:03.292Z,1015.27
2018-06-27T09:03:44.842Z,1015.29
2018-06-27T09:04:25.813Z,1015.3
2018-06-27T09:05:08.318Z,1015.28
2018-06-27T09:05:49.482Z,1015.25
2018-06-27T09:06:30.263Z,1015.24
2018-06-27T09:07:11.417Z,1015.29
2018-06-27T09:07:51.487Z,1015.25
2018-06-27T09:08:32.546Z,1015.25
2018-06-27T09:09:14.852Z,1015.24
2018-06-27T09:09:55.766Z,1015.25
2018-06-27T09:10:36.371Z,1015.23
2018-06-27T09:11:17.403Z,1015.25
2018-06-27T09:11:59.172Z,1015.19
2018-06-27T09:12:41.200Z,1015.23
2018-06-27T09:13:22.602Z,1015.24
2018-06-27T09:14:03.776Z,1015.25
2018-06-27T09:14:44.827Z,1015.2
2018-06-27T09:15:26.128Z,1015.22
2018-06-27T09:16:06.762Z,1015.22
2018-06-27T09:16:48.304Z,1015.22
2018-06-27T09:17:28.388Z,1015.2
2018-06-27T09:18:10.420Z,1015.22
2018-06-27T09:18:51.338Z,1015.27
2018-06-27T09:19:32.997Z,1015.26
2018-06-27T09:20:14.862Z,1015.25
2018-06-27T09:20:57.287Z,1015.24
2018-06-27T09:21:39.173Z,1015.25
2018-06-27T09:22:21.785Z,1015.23
2018-06-27T09:26:24.957Z,1015.21
2018-06-27T09:27:07.029Z,1015.18
2018-06-27T09:27:48.294Z,1015.17
2018-06-27T09:28:28.574Z,1015.14
2018-06-27T09:29:09.858Z,1015.14
2018-06-27T09:29:50.940Z,1015.13
2018-06-27T09:30:31.403Z,1015.11
2018-06-27T09:31:12.231Z,1015.13
2018-06-27T09:31:52.881Z,1015.1
2018-06-27T09:32:33.768Z,1015.09
2018-06-27T09:33:15.842Z,1015.12
2018-06-27T09:33:56.355Z,1015.11
2018-06-27T09:34:38.263Z,1015.09
2018-06-27T09:35:19.038Z,1015.09
2018-06-27T09:36:01.141Z,1015.08
2018-06-27T09:36:42.114Z,1015.07
2018-06-27T09:37:22.996Z,1015.1
2018-06-27T09:38:03.872Z,1015.06
2018-06-27T09:38:45.285Z,1015.01
2018-06-27T09:39:25.844Z,1015
2018-06-27T09:40:06.788Z,1015.02
2018-06-27T09:42:21.013Z,1014.98
2018-06-27T09:43:02.050Z,1015.01
2018-06-27T09:43:43.875Z,1015.02
2018-06-27T09:44:24.745Z,1015.03
2018-06-27T09:45:07.992Z,1014.99
2018-06-27T09:45:50.656Z,1014.98
2018-06-27T09:46:33.642Z,1014.98
2018-06-27T09:47:15.838Z,1014.98
2018-06-27T09:47:59.359Z,1015
2018-06-27T09:48:41.051Z,1014.99
2018-06-27T09:50:41.224Z,1014.91
2018-06-27T09:51:22.215Z,1014.91
2018-06-27T09:52:03.440Z,1014.94
2018-06-27T09:52:44.347Z,1014.96
2018-06-27T09:53:25.241Z,1014.93
2018-06-27T09:54:05.383Z,1014.92
2018-06-27T09:54:46.406Z,1014.92
2018-06-27T09:55:27.038Z,1014.89
2018-06-27T09:56:08.721Z,1014.89
2018-06-27T09:56:50.528Z,1014.93
2018-06-27T09:57:31.291Z,1014.89
2018-06-27T09:58:11.165Z,1014.88
2018-06-27T09:58:51.924Z,1014.92
2018-06-27T09:59:33.493Z,1014.89
2018-06-27T10:00:14.267Z,1014.86
2018-06-27T10:00:56.019Z,1014.85
2018-06-27T10:01:36.763Z,1014.84
2018-06-27T10:03:42.626Z,1014.85
2018-06-27T10:44:01.397Z,1014.57
2018-06-27T10:44:42.199Z,1014.57
2018-06-27T10:45:23.492Z,1014.58
2018-06-27T10:46:04.005Z,1014.62
2018-06-27T10:46:45.268Z,1014.55
2018-06-27T10:47:26.014Z,1014.59
2018-06-27T10:48:06.860Z,1014.55
2018-06-27T10:48:47.524Z,1014.55
2018-06-27T10:49:28.743Z,1014.51
2018-06-27T10:50:09.587Z,1014.55
2018-06-27T10:50:50.061Z,1014.53
2018-06-27T10:51:31.577Z,1014.53
2018-06-27T10:52:13.016Z,1014.56
2018-06-27T10:52:55.053Z,1014.54
2018-06-27T10:53:35.509Z,1014.58
2018-06-27T10:54:17.263Z,1014.58
2018-06-27T10:54:58.144Z,1014.52
2018-06-27T10:55:38.226Z,1014.55
2018-06-27T10:56:19.192Z,1014.52
2018-06-27T10:56:59.826Z,1014.53
2018-06-27T10:57:41.083Z,1014.49
2018-06-27T10:58:22.282Z,1014.45
2018-06-27T10:59:01.936Z,1014.48
2018-06-27T10:59:43.373Z,1014.51
2018-06-27T11:00:24.522Z,1014.55
2018-06-27T11:01:05.881Z,1014.49
2018-06-27T11:01:45.587Z,1014.49
2018-06-27T11:02:27.585Z,1014.48
2018-06-27T11:03:07.181Z,1014.48
2018-06-27T11:03:48.571Z,1014.47
2018-06-27T11:04:30.870Z,1014.52
2018-06-27T11:05:12.565Z,1014.45
2018-06-27T11:07:34.315Z,1014.4
2018-06-27T11:08:15.233Z,1014.4
2018-06-27T11:08:57.052Z,1014.37
2018-06-27T11:10:25.083Z,1014.3
2018-06-27T11:15:55.923Z,1014.25
2018-06-27T11:19:40.209Z,1014.23
2018-06-27T11:20:23.728Z,1014.2
2018-06-27T11:21:07.185Z,1014.18
2018-06-27T11:21:49.466Z,1014.2
2018-06-27T11:22:30.448Z,1014.16
2018-06-27T11:23:11.480Z,1014.16
2018-06-27T11:23:51.913Z,1014.08
2018-06-27T11:24:32.756Z,1014.09
2018-06-27T11:25:14.488Z,1014.04
2018-06-27T11:25:55.331Z,1014.06
2018-06-27T11:26:35.981Z,1014.07
2018-06-27T11:27:16.023Z,1014.07
2018-06-27T11:27:57.465Z,1014.06
2018-06-27T11:30:18.989Z,1014.02
2018-06-27T11:31:16.574Z,1013.99
2018-06-27T11:31:58.077Z,1014.01
2018-06-27T11:32:38.296Z,1013.95
2018-06-27T11:33:19.983Z,1013.94
2018-06-27T11:34:01.372Z,1013.92
2018-06-27T11:34:41.989Z,1013.97
2018-06-27T11:35:22.991Z,1013.96
2018-06-27T11:36:04.314Z,1013.98
2018-06-27T11:36:46.131Z,1013.96
2018-06-27T11:37:27.664Z,1013.97
2018-06-27T11:38:08.342Z,1013.95
2018-06-27T11:38:49.808Z,1013.95
2018-06-27T11:39:31.621Z,1013.93
2018-06-27T11:40:12.083Z,1013.91
2018-06-27T11:40:53.557Z,1013.94
2018-06-27T11:41:41.617Z,1013.89
2018-06-27T11:42:22.331Z,1013.83
2018-06-27T11:45:03.665Z,1013.92
2018-06-27T11:45:40.817Z,1013.91
2018-06-27T11:46:22.872Z,1013.91
2018-06-27T11:47:04.341Z,1013.92
2018-06-27T11:48:01.215Z,1013.88
2018-06-27T11:48:41.887Z,1013.8
2018-06-27T11:49:23.459Z,1013.85
2018-06-27T11:50:03.815Z,1013.83
2018-06-27T11:50:44.944Z,1013.81
2018-06-27T11:51:26.673Z,1013.81
2018-06-27T11:52:07.507Z,1013.79
2018-06-27T11:52:48.278Z,1013.84
2018-06-27T11:53:29.889Z,1013.83
2018-06-27T11:54:10.752Z,1013.84
2018-06-27T11:54:52.855Z,1013.85
2018-06-27T11:55:34.466Z,1013.81
2018-06-27T11:56:15.764Z,1013.83
2018-06-27T11:56:56.445Z,1013.8
2018-06-27T11:57:37.737Z,1013.79
2018-06-27T11:58:18.710Z,1013.79
2018-06-27T11:58:59.697Z,1013.77
2018-06-27T11:59:40.399Z,1013.71
2018-06-27T12:00:21.561Z,1013.73
2018-06-27T12:01:03.747Z,1013.75
2018-06-27T12:01:43.907Z,1013.72
2018-06-27T12:02:24.866Z,1013.75
2018-06-27T12:03:06.665Z,1013.77
2018-06-27T12:03:48.294Z,1013.78
2018-06-27T12:04:30.709Z,1013.69
2018-06-27T12:05:12.344Z,1013.73
2018-06-27T12:05:52.340Z,1013.75
2018-06-27T12:06:33.776Z,1013.7
2018-06-27T12:07:14.865Z,1013.71
2018-06-27T12:07:56.167Z,1013.72
2018-06-27T12:08:36.982Z,1013.73
2018-06-27T12:09:17.723Z,1013.75
2018-06-27T12:10:00.213Z,1013.76
2018-06-27T12:10:40.235Z,1013.67
2018-06-27T12:11:21.064Z,1013.73
2018-06-27T12:12:05.187Z,1013.68
2018-06-27T12:12:49.892Z,1013.66
2018-06-27T12:13:34.600Z,1013.69
2018-06-27T12:14:15.603Z,1013.64
2018-06-27T12:14:57.189Z,1013.63
2018-06-27T12:15:38.795Z,1013.66
2018-06-27T12:16:21.282Z,1013.64
2018-06-27T12:17:02.787Z,1013.63
2018-06-27T12:17:42.708Z,1013.67
2018-06-27T12:18:24.986Z,1013.62
2018-06-27T12:19:04.474Z,1013.61
2018-06-27T12:22:12.911Z,1013.62
2018-06-27T12:22:58.345Z,1013.59
2018-06-27T12:23:39.278Z,1013.63
2018-06-27T12:24:20.253Z,1013.63
2018-06-27T12:25:00.377Z,1013.62
2018-06-27T12:25:41.731Z,1013.62
2018-06-27T12:26:22.292Z,1013.63
2018-06-27T12:27:03.252Z,1013.61
2018-06-27T12:27:44.275Z,1013.55
2018-06-27T12:28:26.386Z,1013.55
2018-06-27T12:29:07.818Z,1013.52
2018-06-27T12:29:48.799Z,1013.51
2018-06-27T12:30:29.495Z,1013.46
2018-06-27T12:31:10.348Z,1013.42
2018-06-27T12:31:50.527Z,1013.46
2018-06-27T12:32:32.726Z,1013.46
2018-06-27T12:33:13.802Z,1013.42
2018-06-27T12:33:55.241Z,1013.41
2018-06-27T12:34:36.300Z,1013.4
2018-06-27T12:35:16.969Z,1013.37
2018-06-27T12:35:57.537Z,1013.34
2018-06-27T12:36:39.251Z,1013.34
2018-06-27T12:37:18.561Z,1013.37
2018-06-27T12:38:00.454Z,1013.37
2018-06-27T12:38:41.753Z,1013.37
2018-06-27T12:39:22.491Z,1013.41
2018-06-27T12:40:07.248Z,1013.31
2018-06-27T12:40:47.739Z,1013.35
2018-06-27T12:41:28.303Z,1013.35
2018-06-27T12:42:09.748Z,1013.34
2018-06-27T12:42:50.874Z,1013.37
2018-06-27T12:43:31.561Z,1013.35
2018-06-27T12:47:23.325Z,1013.28
2018-06-27T12:48:03.834Z,1013.31
2018-06-27T12:48:44.325Z,1013.29
2018-06-27T12:49:24.995Z,1013.31
2018-06-27T12:50:06.409Z,1013.33
2018-06-27T12:50:50.635Z,1013.3
2018-06-27T12:51:31.788Z,1013.31
2018-06-27T12:52:13.340Z,1013.37
2018-06-27T12:52:54.529Z,1013.36
2018-06-27T12:53:36.038Z,1013.37
2018-06-27T12:54:18.037Z,1013.39
2018-06-27T12:54:58.516Z,1013.36
2018-06-27T12:55:39.994Z,1013.33
2018-06-27T12:56:20.855Z,1013.35
2018-06-27T12:57:01.153Z,1013.3
2018-06-27T12:57:44.343Z,1013.29
2018-06-27T12:58:27.846Z,1013.29
2018-06-27T12:59:09.451Z,1013.33
2018-06-27T12:59:51.141Z,1013.3
2018-06-27T13:00:33.572Z,1013.29
2018-06-27T13:01:14.835Z,1013.3
2018-06-27T13:01:55.452Z,1013.29
2018-06-27T13:02:37.159Z,1013.25
2018-06-27T13:03:18.347Z,1013.26
2018-06-27T13:03:58.976Z,1013.26
2018-06-27T13:04:42.093Z,1013.19
2018-06-27T13:05:23.389Z,1013.2
2018-06-27T13:06:05.589Z,1013.17
2018-06-27T13:06:46.836Z,1013.14
2018-06-27T13:07:28.016Z,1013.21
2018-06-27T13:08:09.084Z,1013.17
2018-06-27T13:08:48.641Z,1013.14
2018-06-27T13:09:30.472Z,1013.14